Time;durP1;ratioP1;P1;durP2;ratioP2;P2;SDS_P1;SDS_P2;PMS_P1;PMS_P2;Temp;Humidity;BMP_temperature;BMP_pressure;BME280_temperature;BME280_humidity;BME280_pressure;Samples;Min_cycle;Max_cycle;Signal;HPM_P1;HPM_P2
2022/11/02 00:01:47;;;;;;;10.55;2.33;;;;;;;13.53;76.27;101291.16;5029128;28;20045;-63
2022/11/02 00:04:12;;;;;;;11.40;2.40;;;;;;;13.55;75.79;101289.03;5027360;28;20479;-64
2022/11/02 00:06:38;;;;;;;10.07;1.92;;;;;;;13.62;75.36;101288.91;5022824;28;20030;-64
2022/11/02 00:09:03;;;;;;;13.15;2.20;;;;;;;13.67;75.23;101300.91;5027662;28;20095;-64
2022/11/02 00:11:28;;;;;;;14.05;2.28;;;;;;;13.67;75.19;101291.78;5029978;28;20115;-63
2022/11/02 00:13:54;;;;;;;11.48;2.60;;;;;;;13.68;75.28;101296.22;5029746;28;20039;-63
2022/11/02 00:16:21;;;;;;;10.75;2.40;;;;;;;13.69;74.99;101295.16;5028829;28;20441;-63
2022/11/02 00:18:50;;;;;;;11.73;2.07;;;;;;;13.66;75.23;101296.47;5028463;28;20053;-63
2022/11/02 00:21:17;;;;;;;10.52;2.47;;;;;;;13.68;74.84;101294.28;5029203;28;20029;-63
2022/11/02 00:23:44;;;;;;;13.82;2.60;;;;;;;13.71;74.75;101290.22;5027674;28;20111;-63
2022/11/02 00:26:10;;;;;;;11.70;2.45;;;;;;;13.72;74.78;101295.50;5025899;28;20080;-64
2022/11/02 00:28:35;;;;;;;12.30;1.85;;;;;;;13.80;74.36;101290.72;5029823;28;20104;-64
2022/11/02 00:31:00;;;;;;;9.40;1.90;;;;;;;13.85;74.14;101293.59;5027943;28;20064;-64
2022/11/02 00:33:26;;;;;;;12.65;2.47;;;;;;;13.85;74.03;101299.09;5029309;28;20427;-64
2022/11/02 00:35:53;;;;;;;13.82;2.22;;;;;;;13.83;74.27;101290.22;5027821;28;20076;-63
2022/11/02 00:38:18;;;;;;;13.35;2.47;;;;;;;13.82;73.88;101292.13;5028598;28;20033;-65
2022/11/02 00:40:43;;;;;;;11.40;2.42;;;;;;;13.81;74.41;101289.63;5028544;28;20033;-64
2022/11/02 00:43:08;;;;;;;11.43;2.50;;;;;;;13.86;73.46;101286.97;5028831;28;20079;-63
2022/11/02 00:45:34;;;;;;;8.70;1.90;;;;;;;13.90;73.15;101296.47;5028396;28;20503;-64
2022/11/02 00:47:59;;;;;;;10.07;2.10;;;;;;;13.94;73.29;101301.25;5027053;28;20044;-64
2022/11/02 00:50:24;;;;;;;12.48;1.98;;;;;;;14.01;72.29;101315.75;5028266;28;20205;-64
2022/11/02 00:52:49;;;;;;;12.20;1.90;;;;;;;13.98;72.45;101299.66;5027076;28;20422;-64
2022/11/02 00:55:16;;;;;;;10.85;2.22;;;;;;;13.91;72.55;101310.03;5020658;28;20081;-64
2022/11/02 00:57:43;;;;;;;8.60;1.98;;;;;;;13.86;73.01;101322.88;5024473;28;20558;-63
2022/11/02 01:00:09;;;;;;;12.07;2.28;;;;;;;13.84;72.73;101317.59;5025521;28;20034;-64
2022/11/02 01:02:34;;;;;;;10.25;2.25;;;;;;;13.85;72.24;101316.50;5011278;28;20064;-64
2022/11/02 01:05:00;;;;;;;9.75;1.98;;;;;;;13.80;72.27;101323.84;5026993;28;20053;-63
2022/11/02 01:07:26;;;;;;;10.23;2.05;;;;;;;13.66;72.73;101320.47;5026575;28;20033;-64
2022/11/02 01:09:52;;;;;;;7.80;2.42;;;;;;;13.56;73.21;101328.50;5017318;28;20045;-64
2022/11/02 01:12:17;;;;;;;10.30;2.03;;;;;;;13.53;73.08;101334.50;5027198;28;20021;-64
2022/11/02 01:14:44;;;;;;;7.45;1.70;;;;;;;13.44;73.00;101340.38;5028466;28;20033;-64
2022/11/02 01:17:09;;;;;;;9.10;2.20;;;;;;;13.42;73.56;101342.50;5028420;28;20029;-63
2022/11/02 01:19:34;;;;;;;11.18;2.08;;;;;;;13.43;73.00;101346.09;5026717;28;20037;-64
2022/11/02 01:22:00;;;;;;;7.40;1.90;;;;;;;13.37;72.79;101342.38;5027150;28;20027;-64
2022/11/02 01:24:25;;;;;;;7.68;1.67;;;;;;;13.30;73.34;101340.81;5026122;28;20033;-64
2022/11/02 01:26:51;;;;;;;10.18;2.10;;;;;;;13.28;73.24;101343.84;5020006;28;20038;-64
2022/11/02 01:29:17;;;;;;;9.55;1.95;;;;;;;13.19;74.21;101350.72;5024161;28;20022;-63
2022/11/02 01:31:43;;;;;;;7.50;2.22;;;;;;;13.13;73.56;101340.66;5027741;28;20034;-63
2022/11/02 01:34:10;;;;;;;9.82;1.95;;;;;;;13.17;72.65;101337.16;5027473;28;20609;-63
2022/11/02 01:36:35;;;;;;;11.88;2.17;;;;;;;13.11;73.10;101346.38;5027509;28;20033;-64
2022/11/02 01:39:00;;;;;;;8.52;1.60;;;;;;;13.03;72.74;101341.22;5026911;28;20448;-64
2022/11/02 01:41:26;;;;;;;9.30;1.67;;;;;;;13.00;73.54;101355.47;5026388;28;20025;-64
2022/11/02 01:43:55;;;;;;;8.90;2.20;;;;;;;12.97;73.06;101354.00;5026971;28;20108;-64
2022/11/02 01:46:45;;;;;;;8.50;1.92;;;;;;;13.09;73.03;101364.25;5041832;28;20692;-64
2022/11/02 01:49:18;;;;;;;8.63;1.70;;;;;;;13.08;72.56;101354.31;5022396;28;20578;-64
2022/11/02 01:52:00;;;;;;;9.73;1.75;;;;;;;12.98;72.72;101372.25;5027232;28;20594;-64
2022/11/02 01:54:30;;;;;;;9.98;1.73;;;;;;;13.01;72.26;101361.81;5025623;28;20647;-64
2022/11/02 01:57:01;;;;;;;8.68;1.58;;;;;;;12.92;72.63;101369.56;5026905;28;20041;-64
2022/11/02 01:59:32;;;;;;;10.32;1.80;;;;;;;12.86;73.17;101373.25;5026960;28;20103;-63
2022/11/02 02:01:57;;;;;;;8.18;1.95;;;;;;;12.88;72.90;101371.97;5068320;22;21290;-62
2022/11/02 02:04:24;;;;;;;7.50;1.65;;;;;;;12.91;72.50;101371.47;5024663;28;20426;-62
2022/11/02 02:06:51;;;;;;;7.23;1.57;;;;;;;12.92;72.85;101375.06;5026641;28;20483;-62
2022/11/02 02:09:18;;;;;;;9.65;1.70;;;;;;;12.90;72.95;101369.81;5024304;28;20084;-62
2022/11/02 02:11:43;;;;;;;8.43;1.90;;;;;;;12.89;74.38;101368.13;5026674;28;20044;-62
2022/11/02 02:14:11;;;;;;;6.35;1.40;;;;;;;12.93;74.25;101365.75;5025186;28;20021;-62
2022/11/02 02:16:55;;;;;;;9.25;2.30;;;;;;;12.86;73.93;101370.50;5026716;28;20152;-62
2022/11/02 02:19:43;;;;;;;9.43;1.98;;;;;;;12.87;73.68;101369.41;5026237;28;20176;-62
2022/11/02 02:22:33;;;;;;;9.13;2.20;;;;;;;12.81;73.38;101367.59;5024959;28;20490;-64
2022/11/02 02:25:16;;;;;;;10.15;1.90;;;;;;;12.73;73.49;101368.78;5021734;28;20464;-64
2022/11/02 02:27:47;;;;;;;11.00;2.03;;;;;;;12.69;73.00;101368.38;5015322;28;20079;-64
2022/11/02 02:30:15;;;;;;;7.43;1.77;;;;;;;12.60;73.97;101374.44;5025041;28;20044;-64
2022/11/02 02:33:00;;;;;;;12.80;1.80;;;;;;;12.69;73.26;101373.06;5025997;28;20083;-64
2022/11/02 02:35:42;;;;;;;11.00;2.28;;;;;;;12.56;73.68;101368.53;5026286;28;20022;-63
2022/11/02 02:38:13;;;;;;;9.50;2.00;;;;;;;12.52;73.79;101363.72;5023476;28;20029;-64
2022/11/02 02:40:49;;;;;;;9.93;1.88;;;;;;;12.45;74.40;101375.69;5026641;28;20033;-64
2022/11/02 02:43:19;;;;;;;11.50;2.50;;;;;;;12.41;74.84;101377.19;5025314;28;20114;-64
2022/11/02 02:45:51;;;;;;;9.70;2.10;;;;;;;12.40;74.71;101372.78;5026979;28;20037;-64
2022/11/02 02:48:19;;;;;;;11.43;2.08;;;;;;;12.40;74.84;101378.28;5026191;28;20029;-63
2022/11/02 02:50:58;;;;;;;8.45;1.80;;;;;;;12.27;75.17;101378.44;5023642;28;20511;-64
2022/11/02 02:53:30;;;;;;;10.95;2.55;;;;;;;12.27;75.54;101377.63;5024932;28;20087;-64
2022/11/02 02:55:58;;;;;;;11.77;2.08;;;;;;;12.20;75.64;101375.75;5023917;28;20041;-64
2022/11/02 02:58:24;;;;;;;;;;;;;;;12.26;75.00;101382.25;5025519;28;20037;-64
2022/11/02 03:00:54;;;;;;;9.38;1.90;;;;;;;12.24;75.72;101375.31;5020277;28;19917;-64
2022/11/02 03:03:23;;;;;;;12.02;1.98;;;;;;;12.16;75.80;101381.94;5024697;28;20404;-64
2022/11/02 03:06:03;;;;;;;12.63;2.50;;;;;;;12.30;75.77;101383.47;5025901;28;20333;-66
2022/11/02 03:08:30;;;;;;;13.60;2.40;;;;;;;12.16;75.91;101384.69;5025156;28;20121;-64
2022/11/02 03:11:03;;;;;;;13.02;2.25;;;;;;;12.17;76.10;101376.22;5025444;28;20076;-64
2022/11/02 03:13:40;;;;;;;11.45;2.22;;;;;;;12.10;76.02;101380.09;5024689;28;20095;-64
2022/11/02 03:16:20;;;;;;;15.18;2.70;;;;;;;12.10;76.22;101383.69;5025276;28;20508;-63
2022/11/02 03:19:01;;;;;;;15.90;2.22;;;;;;;12.03;76.64;101373.84;5024874;28;20021;-63
2022/11/02 03:21:39;;;;;;;11.10;3.05;;;;;;;12.04;76.79;101387.38;5024454;28;20025;-64
2022/11/02 03:24:21;;;;;;;12.02;2.95;;;;;;;12.08;75.82;101396.84;5014977;28;20021;-64
2022/11/02 03:27:00;;;;;;;16.65;2.97;;;;;;;12.07;75.77;101394.34;5027518;28;20033;-64
2022/11/02 03:29:40;;;;;;;14.55;2.45;;;;;;;12.13;75.35;101386.00;5026040;28;20037;-64
2022/11/02 03:32:23;;;;;;;14.30;2.40;;;;;;;12.13;75.40;101398.94;5029819;28;20352;-63
2022/11/02 03:34:56;;;;;;;11.93;1.98;;;;;;;12.14;75.49;101401.44;5028276;28;20049;-65
2022/11/02 03:37:51;;;;;;;12.48;2.00;;;;;;;12.20;74.82;101403.28;5029626;28;20021;-63
2022/11/02 03:40:21;;;;;;;15.70;3.83;;;;;;;12.18;74.75;101405.44;5001129;28;20072;-63
2022/11/02 03:42:50;;;;;;;16.83;2.83;;;;;;;12.16;74.94;101406.72;5028991;28;20045;-63
2022/11/02 03:45:19;;;;;;;16.65;2.40;;;;;;;12.25;74.55;101396.25;5028806;28;20037;-63
2022/11/02 03:47:48;;;;;;;13.55;2.33;;;;;;;12.22;75.02;101408.59;5029894;28;20022;-63
2022/11/02 03:50:18;;;;;;;12.60;2.28;;;;;;;12.29;74.52;101411.25;5029105;28;20435;-63
2022/11/02 03:52:46;;;;;;;10.60;2.05;;;;;;;12.22;74.89;101405.84;5029211;28;20072;-63
2022/11/02 03:55:16;;;;;;;18.52;3.20;;;;;;;12.17;74.66;101417.53;5026576;28;20116;-64
2022/11/02 03:57:46;;;;;;;13.90;2.20;;;;;;;12.21;74.17;101412.38;5028590;28;20026;-63
2022/11/02 04:00:15;;;;;;;12.93;2.40;;;;;;;12.12;75.07;101408.28;5026445;28;20033;-63
2022/11/02 04:02:44;;;;;;;17.08;2.75;;;;;;;12.11;74.85;101415.66;5028060;28;20053;-63
2022/11/02 04:05:10;;;;;;;18.20;3.00;;;;;;;12.08;75.05;101423.56;5025545;28;20041;-63
2022/11/02 04:10:23;;;;;;;15.85;2.80;;;;;;;12.08;75.14;101438.16;5027804;28;20103;-63
2022/11/02 04:15:32;;;;;;;18.95;3.22;;;;;;;11.97;76.24;101443.56;5027571;28;20063;-63
2022/11/02 04:20:41;;;;;;;15.80;2.80;;;;;;;11.98;76.17;101451.59;5029334;28;20087;-64
2022/11/02 04:25:54;;;;;;;14.50;2.47;;;;;;;11.98;76.64;101464.53;5026810;28;20044;-63
2022/11/02 04:28:19;;;;;;;15.15;2.90;;;;;;;11.91;77.26;101464.56;5028487;28;20030;-64
2022/11/02 04:30:45;;;;;;;14.40;3.50;;;;;;;11.87;77.50;101468.84;5028038;28;20045;-63
2022/11/02 04:35:54;;;;;;;17.85;2.58;;;;;;;11.91;77.50;101481.06;5025847;28;20095;-63
2022/11/02 04:43:47;;;;;;;14.45;2.75;;;;;;;12.04;76.98;101499.41;5028653;28;20526;-63
2022/11/02 04:46:12;;;;;;;15.88;2.72;;;;;;;12.04;76.80;101493.91;5027010;28;20056;-63
2022/11/02 04:48:37;;;;;;;15.65;2.70;;;;;;;12.02;76.67;101507.06;5028285;28;20044;-63
2022/11/02 04:51:02;;;;;;;16.95;2.70;;;;;;;12.05;76.68;101503.84;5026737;28;20064;-64
2022/11/02 04:53:28;;;;;;;15.43;2.50;;;;;;;12.02;76.56;101509.81;5026524;28;20459;-63
2022/11/02 04:55:53;;;;;;;15.30;2.53;;;;;;;12.02;76.57;101510.66;5027261;28;20045;-63
2022/11/02 04:58:18;;;;;;;14.55;2.40;;;;;;;11.94;76.73;101513.66;5027540;28;20041;-65
2022/11/02 05:00:43;;;;;;;16.88;2.63;;;;;;;11.92;76.63;101519.41;5028032;28;20036;-63
2022/11/02 05:03:09;;;;;;;17.95;2.40;;;;;;;11.93;76.70;101515.59;5025426;28;20049;-64
2022/11/02 05:05:34;;;;;;;12.45;2.25;;;;;;;11.94;76.38;101520.00;5026196;28;20402;-63
2022/11/02 05:07:59;;;;;;;18.77;3.40;;;;;;;11.92;77.06;101521.31;5025295;28;20041;-63
2022/11/02 05:10:25;;;;;;;13.43;2.85;;;;;;;11.99;76.48;101530.34;5028164;28;20028;-63
2022/11/02 05:12:57;;;;;;;11.57;2.67;;;;;;;12.03;76.70;101536.28;5027522;28;20482;-63
2022/11/02 05:15:22;;;;;;;13.90;2.53;;;;;;;12.05;75.95;101545.97;5026051;28;20083;-63
2022/11/02 05:17:47;;;;;;;16.75;2.90;;;;;;;11.98;76.77;101547.94;5026373;28;20029;-63
2022/11/02 05:20:13;;;;;;;16.67;2.92;;;;;;;11.97;76.63;101546.28;5025903;28;20045;-63
2022/11/02 05:22:42;;;;;;;13.38;3.58;;;;;;;12.00;76.64;101551.31;5026812;28;20128;-63
2022/11/02 05:25:08;;;;;;;15.68;2.63;;;;;;;11.97;76.31;101568.28;5025197;28;20034;-63
2022/11/02 05:27:34;;;;;;;12.48;2.58;;;;;;;11.99;75.59;101563.41;5027465;28;20759;-63
2022/11/02 05:29:59;;;;;;;11.40;2.25;;;;;;;11.99;75.98;101576.31;5027804;28;20033;-63
2022/11/02 05:32:25;;;;;;;12.30;2.33;;;;;;;11.94;76.15;101564.06;5026940;28;20030;-63
2022/11/02 05:34:51;;;;;;;16.30;2.47;;;;;;;11.98;76.22;101585.66;5023823;28;20036;-63
2022/11/02 05:37:16;;;;;;;15.48;2.67;;;;;;;12.00;75.92;101584.34;5026681;28;20037;-64
2022/11/02 05:39:41;;;;;;;16.05;2.80;;;;;;;11.92;76.08;101579.13;5026431;28;20417;-63
2022/11/02 05:42:07;;;;;;;13.90;2.50;;;;;;;11.88;76.52;101592.47;5027193;28;20037;-63
2022/11/02 05:44:32;;;;;;;14.63;2.63;;;;;;;11.88;76.43;101592.47;5026887;28;20032;-64
2022/11/02 05:46:57;;;;;;;16.33;2.88;;;;;;;11.94;75.67;101590.75;5025348;28;20033;-62
2022/11/02 05:49:22;;;;;;;12.73;2.53;;;;;;;11.88;76.12;101597.16;5026598;28;20063;-64
2022/11/02 05:51:48;;;;;;;14.00;2.92;;;;;;;11.83;76.15;101608.81;5026260;28;20083;-62
2022/11/02 05:54:13;;;;;;;15.25;3.10;;;;;;;11.76;76.74;101601.63;5023148;28;20383;-63
2022/11/02 05:56:39;;;;;;;11.90;2.78;;;;;;;11.64;77.18;101607.81;5025633;28;20041;-63
2022/11/02 05:59:04;;;;;;;13.73;2.95;;;;;;;11.56;77.31;101616.34;5023222;28;20032;-63
2022/11/02 06:01:29;;;;;;;14.45;2.53;;;;;;;11.45;77.85;101619.75;5026609;28;20033;-63
2022/11/02 06:03:54;;;;;;;13.13;2.47;;;;;;;11.46;77.91;101623.38;5024611;28;20080;-63
2022/11/02 06:06:20;;;;;;;11.88;2.60;;;;;;;11.39;78.47;101635.22;5024972;28;20108;-63
2022/11/02 06:08:45;;;;;;;14.80;2.25;;;;;;;11.37;78.35;101634.59;5024427;28;20037;-64
2022/11/02 06:11:12;;;;;;;13.40;2.58;;;;;;;11.29;78.96;101632.06;5026024;28;20491;-63
2022/11/02 06:13:38;;;;;;;16.67;2.70;;;;;;;11.29;78.69;101645.00;5026331;28;20053;-63
2022/11/02 06:16:08;;;;;;;15.27;2.88;;;;;;;11.20;79.41;101643.53;5026419;28;20025;-63
2022/11/02 06:18:33;;;;;;;16.52;2.85;;;;;;;11.22;79.31;101661.50;5026278;28;20065;-64
2022/11/02 06:20:58;;;;;;;14.10;2.67;;;;;;;11.15;79.38;101660.66;5026260;28;20058;-64
2022/11/02 06:23:24;;;;;;;10.75;2.67;;;;;;;11.10;79.84;101666.84;5023008;28;20051;-64
2022/11/02 06:25:51;;;;;;;19.15;2.75;;;;;;;11.08;79.89;101670.84;5024983;28;20036;-62
2022/11/02 06:28:17;;;;;;;12.50;2.13;;;;;;;11.02;80.49;101672.53;5024572;28;20036;-63
2022/11/02 06:30:42;;;;;;;13.90;2.78;;;;;;;11.09;79.70;101681.63;5026592;28;20025;-63
2022/11/02 06:33:07;;;;;;;15.27;2.83;;;;;;;11.03;80.16;101687.13;5024864;28;20056;-64
2022/11/02 06:35:33;;;;;;;15.23;2.92;;;;;;;11.07;80.12;101697.50;5024296;28;20543;-63
2022/11/02 06:37:58;;;;;;;16.92;2.95;;;;;;;11.00;80.51;101695.78;5022315;28;20029;-63
2022/11/02 06:40:23;;;;;;;15.45;2.55;;;;;;;11.03;80.49;101707.22;5025321;28;20101;-63
2022/11/02 06:42:55;;;;;;;11.57;2.17;;;;;;;11.01;80.69;101720.34;5025901;28;20026;-65
2022/11/02 06:45:20;;;;;;;18.35;2.72;;;;;;;10.94;81.14;101726.88;5025381;28;20061;-63
2022/11/02 06:47:47;;;;;;;16.63;2.95;;;;;;;10.93;81.00;101736.19;5025076;28;20064;-63
2022/11/02 06:50:13;;;;;;;12.05;3.03;;;;;;;10.86;81.81;101741.69;5025828;28;20372;-63
2022/11/02 06:52:46;;;;;;;12.68;2.67;;;;;;;10.88;81.63;101751.41;5025368;28;20036;-63
2022/11/02 06:55:12;;;;;;;13.95;3.08;;;;;;;10.85;81.75;101756.50;5024120;28;20087;-63
2022/11/02 06:57:39;;;;;;;13.65;2.50;;;;;;;10.84;81.51;101754.78;5023494;28;20553;-63
2022/11/02 07:00:07;;;;;;;15.75;2.55;;;;;;;10.80;82.03;101757.13;5025898;28;20114;-63
2022/11/02 07:02:32;;;;;;;;;;;;;;;10.90;80.91;101768.53;5027777;28;20128;-64
2022/11/02 07:04:57;;;;;;;16.00;3.13;;;;;;;10.84;81.64;101777.59;5028181;28;20004;-63
2022/11/02 07:07:23;;;;;;;14.57;3.03;;;;;;;10.83;81.52;101778.66;5026406;28;20037;-63
2022/11/02 07:09:48;;;;;;;17.23;2.47;;;;;;;10.86;81.05;101780.16;5029080;28;20072;-65
2022/11/02 07:12:14;;;;;;;13.65;2.92;;;;;;;10.83;81.74;101788.81;5031112;28;20105;-64
2022/11/02 07:14:39;;;;;;;12.88;2.45;;;;;;;10.89;81.57;101802.56;5029020;28;20758;-64
2022/11/02 07:17:04;;;;;;;12.90;3.10;;;;;;;10.90;81.34;101801.53;5030823;28;20455;-63
2022/11/02 07:19:30;;;;;;;18.27;3.45;;;;;;;10.91;81.69;101814.22;5030662;28;20036;-64
2022/11/02 07:21:55;;;;;;;12.82;2.85;;;;;;;10.95;81.63;101816.53;5030369;28;20026;-64
2022/11/02 07:24:20;;;;;;;13.75;3.50;;;;;;;11.05;80.51;101816.94;5028327;28;20046;-63
2022/11/02 07:26:49;;;;;;;14.45;2.70;;;;;;;11.05;80.77;101826.06;5031041;28;20353;-63
2022/11/02 07:29:15;;;;;;;20.88;3.22;;;;;;;11.05;80.31;101827.94;5024816;28;20026;-64
2022/11/02 07:31:40;;;;;;;16.00;3.95;;;;;;;11.03;80.80;101836.41;5023674;28;20092;-63
2022/11/02 07:34:06;;;;;;;15.20;2.47;;;;;;;11.05;80.87;101833.44;5028513;28;20033;-63
2022/11/02 07:36:31;;;;;;;11.98;3.05;;;;;;;11.05;80.70;101831.56;5029328;28;20041;-64
2022/11/02 07:38:56;;;;;;;13.05;2.30;;;;;;;11.11;79.98;101829.88;5028247;28;20363;-64
2022/11/02 07:41:21;;;;;;;16.48;2.33;;;;;;;11.15;80.10;101836.63;5027700;28;20379;-63
2022/11/02 07:43:47;;;;;;;16.48;2.78;;;;;;;11.17;80.06;101840.03;5028549;28;20025;-64
2022/11/02 07:46:12;;;;;;;15.20;2.60;;;;;;;11.14;80.57;101852.28;5022028;28;20030;-63
2022/11/02 07:48:37;;;;;;;12.68;2.50;;;;;;;11.14;80.27;101846.78;5029303;28;20475;-63
2022/11/02 07:51:03;;;;;;;12.20;2.38;;;;;;;11.18;80.34;101853.56;5021495;28;20030;-63
2022/11/02 07:53:28;;;;;;;17.25;3.63;;;;;;;11.18;80.58;101852.72;5024366;28;20041;-64
2022/11/02 07:55:53;;;;;;;14.48;3.58;;;;;;;11.25;80.25;101856.31;5016579;28;20546;-64
2022/11/02 07:58:18;;;;;;;14.10;2.80;;;;;;;11.31;79.60;101854.66;5015373;28;20033;-64
2022/11/02 08:00:44;;;;;;;21.00;2.92;;;;;;;11.38;79.47;101861.81;5022237;28;20494;-64
2022/11/02 08:03:10;;;;;;;12.60;2.35;;;;;;;11.41;80.60;101872.41;5026032;28;20044;-64
2022/11/02 08:05:37;;;;;;;16.40;2.95;;;;;;;11.53;79.46;101866.28;5016029;28;20033;-64
2022/11/02 08:08:10;;;;;;;14.80;3.13;;;;;;;11.60;78.86;101869.84;5013888;28;20030;-64
2022/11/02 08:10:36;;;;;;;13.63;2.67;;;;;;;11.67;78.89;101871.56;5023975;28;20120;-64
2022/11/02 08:13:01;;;;;;;13.48;2.42;;;;;;;11.75;78.91;101875.97;5027914;28;20026;-64
2022/11/02 08:15:27;;;;;;;12.18;3.33;;;;;;;11.84;78.47;101866.47;5027608;28;20116;-64
2022/11/02 08:18:19;;;;;;;13.60;3.13;;;;;;;11.93;78.07;101875.38;5028574;28;20547;-63
2022/11/02 08:20:45;;;;;;;12.27;2.70;;;;;;;12.06;77.31;101877.22;5028207;28;20037;-64
2022/11/02 08:23:11;;;;;;;15.68;2.53;;;;;;;12.26;77.44;101885.44;5028163;28;20045;-63
2022/11/02 08:25:38;;;;;;;12.82;2.35;;;;;;;12.37;75.51;101877.38;5029449;28;20084;-64
2022/11/02 08:28:05;;;;;;;14.00;2.20;;;;;;;12.49;75.36;101880.28;5027579;28;20598;-64
2022/11/02 08:30:32;;;;;;;11.68;2.75;;;;;;;12.81;74.87;101885.84;5028892;28;20107;-64
2022/11/02 08:33:03;;;;;;;12.95;2.63;;;;;;;13.24;73.46;101878.63;5027691;28;20038;-63
2022/11/02 08:35:28;;;;;;;12.05;2.60;;;;;;;14.07;70.16;101874.69;5027485;28;20083;-64
2022/11/02 08:37:54;;;;;;;13.15;2.58;;;;;;;15.28;65.98;101875.69;5027051;28;20037;-64
2022/11/02 08:40:20;;;;;;;12.00;2.33;;;;;;;16.13;61.71;101880.84;5029051;28;20517;-64
2022/11/02 08:42:45;;;;;;;14.10;2.42;;;;;;;16.90;58.97;101883.31;5025294;28;20034;-64
2022/11/02 08:45:10;;;;;;;13.80;2.55;;;;;;;17.59;56.55;101900.69;5008503;28;20033;-63
2022/11/02 08:47:40;;;;;;;12.52;2.28;;;;;;;18.13;54.66;101905.72;5019737;28;20034;-63
2022/11/02 08:50:06;;;;;;;10.32;2.28;;;;;;;18.26;53.47;101908.16;5029086;28;20072;-63
2022/11/02 08:52:36;;;;;;;12.07;2.30;;;;;;;18.75;52.38;101899.91;5027908;28;20124;-64
2022/11/02 08:55:01;;;;;;;11.60;2.42;;;;;;;19.15;51.00;101895.91;5027356;28;20048;-64
2022/11/02 08:57:27;;;;;;;10.43;2.10;;;;;;;19.27;49.84;101907.75;5028836;28;20069;-63
2022/11/02 08:59:52;;;;;;;11.77;2.40;;;;;;;19.60;49.00;101914.19;5025707;28;20026;-63
2022/11/02 09:02:18;;;;;;;11.32;2.60;;;;;;;19.41;48.13;101913.72;5021923;28;20041;-64
2022/11/02 09:04:43;;;;;;;11.80;1.90;;;;;;;19.28;48.70;101909.41;5028169;28;20025;-64
2022/11/02 09:07:08;;;;;;;10.48;2.40;;;;;;;19.62;47.52;101912.84;5027540;28;20048;-64
2022/11/02 09:09:33;;;;;;;11.55;2.45;;;;;;;20.03;46.55;101918.75;5028173;28;20105;-63
2022/11/02 09:11:59;;;;;;;12.60;2.30;;;;;;;20.03;46.11;101913.16;5028043;28;20095;-64
2022/11/02 09:14:24;;;;;;;10.50;2.37;;;;;;;20.50;45.19;101923.50;5027084;28;20291;-62
2022/11/02 09:16:49;;;;;;;10.13;2.40;;;;;;;20.25;45.63;101920.53;5024715;28;20381;-64
2022/11/02 09:19:14;;;;;;;10.93;2.03;;;;;;;20.18;45.51;101926.38;5028402;28;20029;-63
2022/11/02 09:21:40;;;;;;;12.02;2.70;;;;;;;20.23;45.24;101926.41;5027801;28;20280;-63
2022/11/02 09:24:05;;;;;;;11.68;3.05;;;;;;;20.08;44.78;101923.50;5024223;28;20038;-64
2022/11/02 09:26:30;;;;;;;9.30;2.20;;;;;;;20.08;45.33;101918.78;5028389;28;20026;-63
2022/11/02 09:28:56;;;;;;;11.70;1.97;;;;;;;20.47;44.81;101936.03;5027652;28;20029;-63
2022/11/02 09:31:21;;;;;;;12.20;2.13;;;;;;;20.18;44.87;101938.38;5027041;28;20773;-63
2022/11/02 09:33:46;;;;;;;12.02;2.63;;;;;;;20.40;44.97;101934.59;5027557;28;20299;-64
2022/11/02 09:36:12;;;;;;;12.18;2.78;;;;;;;20.37;44.35;101941.53;5022351;28;20049;-63
2022/11/02 09:38:37;;;;;;;11.80;2.20;;;;;;;19.89;45.75;101939.81;5024327;28;20033;-62
2022/11/02 09:41:13;;;;;;;9.45;2.05;;;;;;;20.48;44.91;101942.50;5026243;28;20569;-63
2022/11/02 09:43:57;;;;;;;13.60;2.42;;;;;;;20.84;44.27;101934.28;5028216;28;20819;-63
2022/11/02 09:46:30;;;;;;;10.88;2.83;;;;;;;20.66;44.31;101935.59;5024305;28;20021;-63
2022/11/02 09:49:00;;;;;;;11.40;2.00;;;;;;;19.76;45.31;101946.66;5026141;28;20048;-63
2022/11/02 09:51:36;;;;;;;9.07;2.72;;;;;;;19.75;46.83;101946.94;5028416;28;20030;-64
2022/11/02 09:54:31;;;;;;;13.82;2.33;;;;;;;20.54;45.58;101946.16;5011404;28;20041;-63
2022/11/02 09:57:02;;;;;;;9.63;2.03;;;;;;;20.79;44.07;101960.22;5023654;28;20038;-63
2022/11/02 09:59:28;;;;;;;12.75;2.40;;;;;;;21.38;42.74;101950.66;5028065;28;20033;-64
2022/11/02 10:02:11;;;;;;;11.23;2.35;;;;;;;21.83;42.31;101949.03;5027143;28;20032;-63
2022/11/02 10:05:23;;;;;;;9.05;2.53;;;;;;;21.90;41.76;101958.84;5015897;28;20215;-64
2022/11/02 10:08:20;;;;;;;11.68;2.75;;;;;;;22.12;40.89;101961.38;5026750;28;20099;-65
2022/11/02 10:10:53;;;;;;;;;;;;;;;21.56;42.23;101963.28;5001031;28;20049;-62
2022/11/02 10:13:49;;;;;;;10.18;2.13;;;;;;;21.28;43.87;101972.97;5027710;28;19928;-66
2022/11/02 10:16:22;;;;;;;13.95;2.50;;;;;;;21.92;41.43;101975.31;5022596;28;20072;-63
2022/11/02 10:18:52;;;;;;;11.45;1.98;;;;;;;19.94;44.85;101984.47;5024857;28;20459;-64
2022/11/02 10:21:40;;;;;;;12.48;2.50;;;;;;;20.76;44.63;101988.69;5019581;28;20033;-64
2022/11/02 10:24:24;;;;;;;10.65;3.05;;;;;;;19.48;46.20;101992.38;5017329;28;20056;-63
2022/11/02 10:26:55;;;;;;;13.55;2.72;;;;;;;20.37;45.74;101988.13;5028564;28;20028;-63
2022/11/02 10:29:47;;;;;;;11.43;2.40;;;;;;;22.03;43.41;101983.44;5023773;28;20030;-63
2022/11/02 10:32:15;;;;;;;16.35;2.90;;;;;;;21.84;40.35;101982.31;5019129;28;20112;-64
2022/11/02 10:34:43;;;;;;;11.13;2.30;;;;;;;21.60;40.50;101976.44;5025068;28;20037;-64
2022/11/02 10:37:40;;;;;;;12.55;2.72;;;;;;;21.90;41.44;101977.59;5026446;28;20040;-64
2022/11/02 10:40:31;;;;;;;11.35;2.38;;;;;;;22.82;38.99;101977.44;5030425;28;20049;-63
2022/11/02 10:43:09;;;;;;;7.40;1.80;;;;;;;23.05;39.05;101979.59;5025445;28;20026;-63
2022/11/02 10:45:44;;;;;;;10.05;2.83;;;;;;;23.40;37.02;101986.16;5026922;28;20029;-63
2022/11/02 10:48:33;;;;;;;11.23;2.22;;;;;;;23.68;38.20;101995.84;5016127;28;20263;-65
2022/11/02 10:51:07;;;;;;;11.85;2.10;;;;;;;23.78;36.86;101990.97;5018493;28;20028;-63
2022/11/02 10:53:35;;;;;;;11.82;2.08;;;;;;;22.52;38.71;101999.66;5019599;28;20040;-63
2022/11/02 10:56:20;;;;;;;;;;;;;;;22.95;38.66;101994.50;5014307;28;20512;-63
2022/11/02 10:58:48;;;;;;;10.25;2.38;;;;;;;22.75;37.79;102002.94;5015483;28;19917;-63
2022/11/02 11:01:13;;;;;;;12.63;2.45;;;;;;;23.35;37.21;101998.22;5020034;28;20041;-63
2022/11/02 11:03:56;;;;;;;9.60;2.10;;;;;;;22.62;38.96;102003.56;5021069;28;20083;-64
2022/11/02 11:06:23;;;;;;;16.55;2.53;;;;;;;22.30;39.62;102006.66;5022604;28;20095;-63
2022/11/02 11:08:50;;;;;;;13.32;2.50;;;;;;;22.95;37.73;101999.25;5024481;28;20029;-64
2022/11/02 11:11:22;;;;;;;9.02;2.17;;;;;;;23.60;37.12;101999.22;5025661;28;20044;-64
2022/11/02 11:13:56;;;;;;;9.73;1.90;;;;;;;24.31;35.83;101993.88;5025909;28;20025;-63
2022/11/02 11:16:40;;;;;;;9.80;1.88;;;;;;;24.15;35.77;102000.78;5022409;28;20394;-64
2022/11/02 11:19:31;;;;;;;7.15;1.98;;;;;;;24.13;34.95;102008.66;5025543;28;20499;-63
2022/11/02 11:21:56;;;;;;;10.38;2.55;;;;;;;23.80;34.39;101999.09;5023547;28;20021;-63
2022/11/02 11:24:33;;;;;;;8.88;2.00;;;;;;;23.88;35.41;102006.06;5020734;28;20036;-63
2022/11/02 11:27:25;;;;;;;8.85;1.73;;;;;;;23.98;34.33;102004.00;5006827;28;20041;-63
2022/11/02 11:29:53;;;;;;;8.25;1.77;;;;;;;24.60;33.20;101998.69;5012138;28;20033;-64
2022/11/02 11:32:23;;;;;;;;;;;;;;;25.30;33.21;102001.78;5012505;28;20105;-65
2022/11/02 11:34:56;;;;;;;9.18;1.85;;;;;;;23.86;33.81;101997.91;5019029;28;20560;-65
2022/11/02 11:37:23;;;;;;;8.00;1.67;;;;;;;23.42;34.15;101989.50;5019490;28;20033;-64
2022/11/02 11:39:53;;;;;;;9.23;2.22;;;;;;;23.84;34.58;101982.53;5014685;28;20029;-66
2022/11/02 11:42:21;;;;;;;10.45;1.90;;;;;;;24.59;33.11;101980.16;5021471;28;20521;-65
2022/11/02 11:44:56;;;;;;;8.18;1.77;;;;;;;25.03;33.47;101979.88;5025491;28;20390;-64
2022/11/02 11:47:31;;;;;;;6.53;2.05;;;;;;;25.10;32.62;101973.94;5030776;28;20097;-63
2022/11/02 11:50:01;;;;;;;7.90;1.75;;;;;;;24.85;31.42;101978.72;5025851;28;20402;-64